Time;durP1;ratioP1;P1;durP2;ratioP2;P2;SDS_P1;SDS_P2;PMS_P1;PMS_P2;Temp;Humidity;BMP_temperature;BMP_pressure;BME280_temperature;BME280_humidity;BME280_pressure;Samples;Min_cycle;Max_cycle;Signal;HPM_P1;HPM_P2
2021/07/28 00:01:55;;;;;;;;;;;;;;;;;;5029863;28;21548;-64
2021/07/28 00:04:22;;;;;;;;;;;;;;;;;;5024743;28;19933;-64
2021/07/28 00:06:49;;;;;;;;;;;;;;;;;;5028459;28;19925;-64
2021/07/28 00:09:16;;;;;;;;;;;;;;;;;;5028090;28;19934;-65
2021/07/28 00:11:42;;;;;;;;;;;;;;;;;;5024487;28;20402;-63
2021/07/28 00:14:09;;;;;;;;;;;;;;;;;;5024190;28;20297;-64
2021/07/28 00:16:36;;;;;;;;;;;;;;;;;;5025054;28;19936;-64
2021/07/28 00:19:08;;;;;;;;;;;;;;;;;;5029493;28;19925;-64
2021/07/28 00:24:19;;;;;;;;;;;;;;;;;;5029588;28;19936;-64
2021/07/28 00:26:46;;;;;;;;;;;;;;;;;;5026670;28;20012;-64
2021/07/28 00:29:13;;;;;;;;;;;;;;;;;;5028011;28;19925;-64
2021/07/28 00:31:40;;;;;;;;;;;;;;;;;;5023855;28;19936;-64
2021/07/28 00:34:07;;;;;;;;;;;;;;;;;;5017733;28;19932;-64
2021/07/28 00:36:34;;;;;;;;;;;;;;;;;;5022909;28;19933;-64
2021/07/28 00:39:01;;;;;;;;;;;;;;;;;;5023781;28;19925;-63
2021/07/28 00:41:28;;;;;;;;;;;;;;;;;;5025292;28;20019;-63
2021/07/28 00:43:55;;;;;;;;;;;;;;;;;;5030843;28;19987;-63
2021/07/28 00:46:22;;;;;;;;;;;;;;;;;;5022841;28;19926;-63
2021/07/28 00:48:49;;;;;;;;;;;;;;;;;;5028456;28;19925;-64
2021/07/28 00:51:16;;;;;;;;;;;;;;;;;;5025010;28;19933;-68
2021/07/28 00:53:43;;;;;;;;;;;;;;;;;;5019129;28;20398;-64
2021/07/28 00:56:10;;;;;;;;;;;;;;;;;;5027786;28;19925;-64
2021/07/28 00:58:37;;;;;;;;;;;;;;;;;;5020731;28;19933;-64
2021/07/28 01:01:04;;;;;;;;;;;;;;;;;;5029141;28;19933;-64
2021/07/28 01:03:31;;;;;;;;;;;;;;;;;;5016403;28;19975;-63
2021/07/28 01:05:58;;;;;;;;;;;;;;;;;;5022915;28;20401;-64
2021/07/28 01:08:25;;;;;;;;;;;;;;;;;;5023025;28;19932;-64
2021/07/28 01:10:52;;;;;;;;;;;;;;;;;;5025651;28;19943;-64
2021/07/28 01:13:26;;;;;;;;;;;;;;;;;;5026429;28;19933;-64
2021/07/28 01:15:54;;;;;;;;;;;;;;;;;;5028195;28;19926;-64
2021/07/28 01:18:21;;;;;;;;;;;;;;;;;;5020124;28;19941;-65
2021/07/28 01:20:48;;;;;;;;;;;;;;;;;;5020156;28;19925;-65
2021/07/28 01:23:15;;;;;;;;;;;;;;;;;;5023667;28;20010;-65
2021/07/28 01:25:42;;;;;;;;;;;;;;;;;;5030428;28;19948;-65
2021/07/28 01:28:08;;;;;;;;;;;;;;;;;;5030296;28;19932;-65
2021/07/28 01:30:35;;;;;;;;;;;;;;;;;;5026167;28;20317;-65
2021/07/28 01:33:02;;;;;;;;;;;;;;;;;;5023875;28;19936;-65
2021/07/28 01:35:29;;;;;;;;;;;;;;;;;;5033494;28;20397;-65
2021/07/28 01:37:56;;;;;;;;;;;;;;;;;;5028768;28;20305;-67
2021/07/28 01:40:23;;;;;;;;;;;;;;;;;;5029097;28;20415;-65
2021/07/28 01:42:50;;;;;;;;;;;;;;;;;;5028637;28;20225;-65
2021/07/28 01:45:17;;;;;;;;;;;;;;;;;;5027872;28;19925;-65
2021/07/28 01:47:44;;;;;;;;;;;;;;;;;;5022908;28;19925;-66
2021/07/28 01:50:11;;;;;;;;;;;;;;;;;;5022808;28;19930;-65
2021/07/28 01:52:38;;;;;;;;;;;;;;;;;;5026660;28;19925;-65
2021/07/28 01:55:05;;;;;;;;;;;;;;;;;;5028656;28;20381;-65
2021/07/28 01:57:32;;;;;;;;;;;;;;;;;;5022017;28;20404;-65
2021/07/28 02:00:00;;;;;;;;;;;;;;;;;;5024856;28;19932;-65
2021/07/28 02:02:31;;;;;;;;;;;;;;;;;;5025582;28;19925;-66
2021/07/28 02:04:58;;;;;;;;;;;;;;;;;;5026512;28;19965;-66
2021/07/28 02:07:25;;;;;;;;;;;;;;;;;;5019731;28;19933;-65
2021/07/28 02:09:52;;;;;;;;;;;;;;;;;;5026079;28;20027;-65
2021/07/28 02:12:18;;;;;;;;;;;;;;;;;;5028453;28;19937;-65
2021/07/28 02:14:45;;;;;;;;;;;;;;;;;;5029263;28;19933;-65
2021/07/28 02:17:12;;;;;;;;;;;;;;;;;;5025737;28;19925;-65
2021/07/28 02:19:39;;;;;;;;;;;;;;;;;;5024150;28;19932;-65
2021/07/28 02:22:06;;;;;;;;;;;;;;;;;;5025571;28;19947;-65
2021/07/28 02:24:33;;;;;;;;;;;;;;;;;;5022735;28;19926;-65
2021/07/28 02:27:00;;;;;;;;;;;;;;;;;;5024261;28;19932;-65
2021/07/28 02:29:28;;;;;;;;;;;;;;;;;;5032752;28;20419;-65
2021/07/28 02:31:55;;;;;;;;;;;;;;;;;;5026605;28;20008;-65
2021/07/28 02:34:22;;;;;;;;;;;;;;;;;;5028160;28;19934;-65
2021/07/28 02:36:49;;;;;;;;;;;;;;;;;;5018097;28;20408;-65
2021/07/28 02:39:16;;;;;;;;;;;;;;;;;;5026824;28;19925;-65
2021/07/28 02:41:43;;;;;;;;;;;;;;;;;;5020468;28;19925;-65
2021/07/28 02:44:10;;;;;;;;;;;;;;;;;;5024891;28;19925;-65
2021/07/28 02:46:37;;;;;;;;;;;;;;;;;;5030756;28;19925;-65
2021/07/28 02:49:04;;;;;;;;;;;;;;;;;;5031707;28;19929;-65
2021/07/28 02:51:31;;;;;;;;;;;;;;;;;;5026324;28;19925;-65
2021/07/28 02:53:58;;;;;;;;;;;;;;;;;;5026564;28;20317;-65
2021/07/28 02:56:24;;;;;;;;;;;;;;;;;;5027357;28;19948;-65
2021/07/28 02:58:51;;;;;;;;;;;;;;;;;;5027720;28;19949;-66
2021/07/28 03:01:18;;;;;;;;;;;;;;;;;;5028545;28;19925;-65
2021/07/28 03:03:45;;;;;;;;;;;;;;;;;;5029413;28;20024;-65
2021/07/28 03:06:12;;;;;;;;;;;;;;;;;;5026601;28;20023;-65
2021/07/28 03:08:39;;;;;;;;;;;;;;;;;;5020868;28;19949;-65
2021/07/28 03:11:06;;;;;;;;;;;;;;;;;;5026777;28;19925;-65
2021/07/28 03:13:33;;;;;;;;;;;;;;;;;;5025496;28;19925;-65
2021/07/28 03:16:00;;;;;;;;;;;;;;;;;;5021434;28;19948;-65
2021/07/28 03:18:27;;;;;;;;;;;;;;;;;;5025168;28;19925;-65
2021/07/28 03:20:54;;;;;;;;;;;;;;;;;;5026021;28;20385;-65
2021/07/28 03:23:21;;;;;;;;;;;;;;;;;;5026020;28;19925;-65
2021/07/28 03:25:48;;;;;;;;;;;;;;;;;;5031091;28;19925;-65
2021/07/28 03:28:15;;;;;;;;;;;;;;;;;;5024348;28;19933;-65
2021/07/28 03:30:42;;;;;;;;;;;;;;;;;;5025992;28;19925;-65
2021/07/28 03:33:09;;;;;;;;;;;;;;;;;;5026866;28;19963;-65
2021/07/28 03:35:36;;;;;;;;;;;;;;;;;;5027236;28;19925;-65
2021/07/28 03:38:03;;;;;;;;;;;;;;;;;;5023487;28;19925;-65
2021/07/28 03:40:30;;;;;;;;;;;;;;;;;;5074774;22;19928;-65
2021/07/28 03:42:57;;;;;;;;;;;;;;;;;;5071056;28;19924;-66
2021/07/28 03:45:24;;;;;;;;;;;;;;;;;;5070140;28;19931;-65
2021/07/28 03:47:51;;;;;;;;;;;;;;;;;;5069063;28;19925;-66
2021/07/28 03:50:18;;;;;;;;;;;;;;;;;;5064967;28;19924;-65
2021/07/28 03:52:45;;;;;;;;;;;;;;;;;;5062775;28;19925;-66
2021/07/28 03:55:12;;;;;;;;;;;;;;;;;;5064070;28;20437;-66
2021/07/28 03:57:39;;;;;;;;;;;;;;;;;;5065552;28;19924;-66
2021/07/28 04:00:06;;;;;;;;;;;;;;;;;;5067130;28;19925;-66
2021/07/28 04:02:33;;;;;;;;;;;;;;;;;;5069963;28;20011;-66
2021/07/28 04:05:02;;;;;;;;;;;;;;;;;;5067826;28;19925;-66
2021/07/28 04:07:29;;;;;;;;;;;;;;;;;;5060488;28;19960;-66
2021/07/28 04:09:56;;;;;;;;;;;;;;;;;;5068978;28;19935;-66
2021/07/28 04:12:23;;;;;;;;;;;;;;;;;;5071708;28;19924;-68
2021/07/28 04:14:50;;;;;;;;;;;;;;;;;;5065342;28;20020;-67
2021/07/28 04:17:16;;;;;;;;;;;;;;;;;;5065097;28;19925;-67
2021/07/28 04:19:48;;;;;;;;;;;;;;;;;;5061693;28;19924;-68
2021/07/28 04:22:15;;;;;;;;;;;;;;;;;;5070188;28;19952;-68
2021/07/28 04:24:42;;;;;;;;;;;;;;;;;;5068334;28;19932;-67
2021/07/28 04:27:09;;;;;;;;;;;;;;;;;;5070445;28;19925;-67
2021/07/28 04:29:36;;;;;;;;;;;;;;;;;;5070409;28;19924;-67
2021/07/28 04:32:03;;;;;;;;;;;;;;;;;;5068414;28;20394;-67
2021/07/28 04:34:30;;;;;;;;;;;;;;;;;;5065176;28;19932;-67
2021/07/28 04:36:57;;;;;;;;;;;;;;;;;;5065283;28;19933;-67
2021/07/28 04:39:24;;;;;;;;;;;;;;;;;;5077152;28;19928;-67
2021/07/28 04:41:51;;;;;;;;;;;;;;;;;;5069542;28;20343;-67
2021/07/28 04:44:18;;;;;;;;;;;;;;;;;;5068878;28;19928;-67
2021/07/28 04:46:45;;;;;;;;;;;;;;;;;;5059119;28;19924;-66
2021/07/28 04:49:12;;;;;;;;;;;;;;;;;;5063398;28;19929;-66
2021/07/28 04:51:39;;;;;;;;;;;;;;;;;;5068173;28;19924;-66
2021/07/28 04:54:06;;;;;;;;;;;;;;;;;;5065397;28;19924;-66
2021/07/28 04:56:33;;;;;;;;;;;;;;;;;;5060343;28;19924;-67
2021/07/28 04:58:59;;;;;;;;;;;;;;;;;;5060883;28;19936;-67
2021/07/28 05:01:26;;;;;;;;;;;;;;;;;;5062182;28;19939;-67
2021/07/28 05:03:53;;;;;;;;;;;;;;;;;;5068310;28;19925;-67
2021/07/28 05:06:20;;;;;;;;;;;;;;;;;;5065429;28;19924;-66
2021/07/28 05:08:47;;;;;;;;;;;;;;;;;;5070827;28;19925;-66
2021/07/28 05:11:14;;;;;;;;;;;;;;;;;;5071227;28;19931;-67
2021/07/28 05:13:41;;;;;;;;;;;;;;;;;;5069519;28;19925;-66
2021/07/28 05:16:08;;;;;;;;;;;;;;;;;;5073319;28;19932;-66
2021/07/28 05:18:35;;;;;;;;;;;;;;;;;;5080300;28;19936;-66
2021/07/28 05:21:02;;;;;;;;;;;;;;;;;;5071281;28;20292;-66
2021/07/28 05:23:29;;;;;;;;;;;;;;;;;;5069793;28;20311;-67
2021/07/28 05:25:56;;;;;;;;;;;;;;;;;;5072357;28;19925;-66
2021/07/28 05:28:23;;;;;;;;;;;;;;;;;;5070026;28;19925;-67
2021/07/28 05:30:50;;;;;;;;;;;;;;;;;;5071877;28;19925;-67
2021/07/28 05:33:17;;;;;;;;;;;;;;;;;;5071785;28;19925;-66
2021/07/28 05:35:48;;;;;;;;;;;;;;;;;;5068819;28;20300;-66
2021/07/28 05:38:15;;;;;;;;;;;;;;;;;;5072923;28;19986;-66
2021/07/28 05:40:42;;;;;;;;;;;;;;;;;;5069053;28;19925;-66
2021/07/28 05:43:08;;;;;;;;;;;;;;;;;;5073144;28;19925;-67
2021/07/28 05:45:35;;;;;;;;;;;;;;;;;;5072216;28;19958;-66
2021/07/28 05:48:02;;;;;;;;;;;;;;;;;;5067678;28;19933;-67
2021/07/28 05:50:29;;;;;;;;;;;;;;;;;;5067445;28;19932;-66
2021/07/28 05:52:56;;;;;;;;;;;;;;;;;;5071138;28;20293;-66
2021/07/28 05:55:23;;;;;;;;;;;;;;;;;;5072318;28;19932;-66
2021/07/28 05:57:51;;;;;;;;;;;;;;;;;;5072759;28;19949;-66
2021/07/28 06:00:18;;;;;;;;;;;;;;;;;;5072314;28;19931;-66
2021/07/28 06:02:45;;;;;;;;;;;;;;;;;;5068999;28;19932;-66
2021/07/28 06:05:12;;;;;;;;;;;;;;;;;;5066420;28;19938;-66
2021/07/28 06:07:39;;;;;;;;;;;;;;;;;;5059844;28;19929;-66
2021/07/28 06:10:06;;;;;;;;;;;;;;;;;;5062627;28;19925;-66
2021/07/28 06:12:33;;;;;;;;;;;;;;;;;;5061630;28;19928;-66
2021/07/28 06:15:00;;;;;;;;;;;;;;;;;;5063872;28;19931;-66
2021/07/28 06:17:27;;;;;;;;;;;;;;;;;;5068196;28;20288;-66
2021/07/28 06:19:54;;;;;;;;;;;;;;;;;;5067750;28;19932;-65
2021/07/28 06:22:21;;;;;;;;;;;;;;;;;;5068549;28;19932;-65
2021/07/28 06:24:48;;;;;;;;;;;;;;;;;;5069458;28;19924;-65
2021/07/28 06:27:15;;;;;;;;;;;;;;;;;;5059119;28;19931;-65
2021/07/28 06:29:42;;;;;;;;;;;;;;;;;;5065389;28;19928;-65
2021/07/28 06:32:09;;;;;;;;;;;;;;;;;;5067593;28;19931;-65
2021/07/28 06:34:36;;;;;;;;;;;;;;;;;;5067208;28;19924;-67
2021/07/28 06:37:03;;;;;;;;;;;;;;;;;;5067198;28;19928;-66
2021/07/28 06:39:30;;;;;;;;;;;;;;;;;;5069218;28;19924;-67
2021/07/28 06:41:57;;;;;;;;;;;;;;;;;;5068230;28;19936;-67
2021/07/28 06:44:24;;;;;;;;;;;;;;;;;;5058689;28;19931;-67
2021/07/28 06:46:51;;;;;;;;;;;;;;;;;;5066554;28;19932;-65
2021/07/28 06:49:17;;;;;;;;;;;;;;;;;;5068081;28;19947;-65
2021/07/28 06:51:44;;;;;;;;;;;;;;;;;;5068023;28;19925;-68
2021/07/28 06:54:11;;;;;;;;;;;;;;;;;;5073229;28;19924;-66
2021/07/28 06:56:38;;;;;;;;;;;;;;;;;;5060786;28;19924;-66
2021/07/28 06:59:05;;;;;;;;;;;;;;;;;;5065776;28;19947;-67
2021/07/28 07:01:32;;;;;;;;;;;;;;;;;;5065380;28;19940;-67
2021/07/28 07:03:59;;;;;;;;;;;;;;;;;;5067791;28;19925;-66
2021/07/28 07:06:26;;;;;;;;;;;;;;;;;;5064185;28;19924;-65
2021/07/28 07:08:54;;;;;;;;;;;;;;;;;;5061100;28;19925;-65
2021/07/28 07:11:21;;;;;;;;;;;;;;;;;;5058656;28;19931;-67
2021/07/28 07:13:48;;;;;;;;;;;;;;;;;;5066018;28;19925;-66
2021/07/28 07:16:15;;;;;;;;;;;;;;;;;;5060173;28;19932;-67
2021/07/28 07:18:42;;;;;;;;;;;;;;;;;;5068158;28;19939;-67
2021/07/28 07:21:09;;;;;;;;;;;;;;;;;;5064794;28;19925;-66
2021/07/28 07:23:35;;;;;;;;;;;;;;;;;;5068454;28;20207;-65
2021/07/28 07:26:02;;;;;;;;;;;;;;;;;;5064935;28;19924;-67
2021/07/28 07:28:29;;;;;;;;;;;;;;;;;;5068684;28;19931;-67
2021/07/28 07:30:57;;;;;;;;;;;;;;;;;;5069206;28;19971;-66
2021/07/28 07:33:39;;;;;;;;;;;;;;;;;;5066021;28;20035;-68
2021/07/28 07:36:06;;;;;;;;;;;;;;;;;;5061469;28;20015;-66
2021/07/28 07:38:33;;;;;;;;;;;;;;;;;;5064855;28;19928;-66
2021/07/28 07:41:00;;;;;;;;;;;;;;;;;;5069513;28;20229;-65
2021/07/28 07:43:27;;;;;;;;;;;;;;;;;;5072647;28;19924;-67
2021/07/28 07:45:55;;;;;;;;;;;;;;;;;;5070446;28;19935;-68
2021/07/28 07:48:22;;;;;;;;;;;;;;;;;;5070702;28;19925;-69
2021/07/28 07:50:49;;;;;;;;;;;;;;;;;;5073164;28;20311;-67
2021/07/28 07:53:16;;;;;;;;;;;;;;;;;;5070983;28;19936;-68
2021/07/28 07:55:43;;;;;;;;;;;;;;;;;;5063008;28;19925;-66
2021/07/28 07:58:10;;;;;;;;;;;;;;;;;;5065895;28;19925;-68
2021/07/28 08:00:37;;;;;;;;;;;;;;;;;;5070947;28;19925;-67
2021/07/28 08:03:04;;;;;;;;;;;;;;;;;;5070993;28;19924;-67
2021/07/28 08:05:32;;;;;;;;;;;;;;;;;;5067713;28;19936;-67
2021/07/28 08:07:59;;;;;;;;;;;;;;;;;;5064907;28;19932;-67
2021/07/28 08:10:27;;;;;;;;;;;;;;;;;;5071113;28;19939;-67
2021/07/28 08:12:54;;;;;;;;;;;;;;;;;;5066132;28;19931;-68
2021/07/28 08:15:20;;;;;;;;;;;;;;;;;;5067478;28;20028;-67
2021/07/28 08:17:47;;;;;;;;;;;;;;;;;;5068526;28;19924;-67
2021/07/28 08:20:14;;;;;;;;;;;;;;;;;;5071918;28;19935;-66
2021/07/28 08:22:41;;;;;;;;;;;;;;;;;;5066951;28;20407;-69
2021/07/28 08:25:08;;;;;;;;;;;;;;;;;;5062218;28;19934;-66
2021/07/28 08:27:35;;;;;;;;;;;;;;;;;;5065909;28;19925;-67
2021/07/28 08:30:02;;;;;;;;;;;;;;;;;;5063991;28;20447;-67
2021/07/28 08:32:29;;;;;;;;;;;;;;;;;;5066696;28;19925;-67
2021/07/28 08:34:56;;;;;;;;;;;;;;;;;;5062315;28;20527;-67
2021/07/28 08:37:23;;;;;;;;;;;;;;;;;;5057333;28;20404;-68
2021/07/28 08:39:50;;;;;;;;;;;;;;;;;;5061965;28;19932;-68
2021/07/28 08:42:17;;;;;;;;;;;;;;;;;;5065543;28;19924;-67
2021/07/28 08:44:44;;;;;;;;;;;;;;;;;;5065737;28;19928;-68
2021/07/28 08:47:11;;;;;;;;;;;;;;;;;;5066914;28;19925;-70
2021/07/28 08:49:38;;;;;;;;;;;;;;;;;;5067301;28;19933;-69
2021/07/28 08:52:05;;;;;;;;;;;;;;;;;;5068237;28;20053;-67
2021/07/28 08:54:32;;;;;;;;;;;;;;;;;;5068528;28;20006;-66
2021/07/28 08:57:00;;;;;;;;;;;;;;;;;;5054447;28;19932;-68
2021/07/28 08:59:27;;;;;;;;;;;;;;;;;;5054373;28;19936;-71
2021/07/28 09:01:54;;;;;;;;;;;;;;;;;;5068835;28;19933;-69
2021/07/28 09:04:21;;;;;;;;;;;;;;;;;;5057413;28;19925;-68
2021/07/28 09:06:48;;;;;;;;;;;;;;;;;;5061488;28;19924;-70
2021/07/28 09:09:15;;;;;;;;;;;;;;;;;;5058946;28;19932;-70
2021/07/28 09:11:42;;;;;;;;;;;;;;;;;;5065973;28;19936;-70
2021/07/28 09:14:09;;;;;;;;;;;;;;;;;;5064398;28;20431;-69
2021/07/28 09:16:36;;;;;;;;;;;;;;;;;;5064533;28;20030;-70
2021/07/28 09:19:03;;;;;;;;;;;;;;;;;;5069471;28;20315;-70
2021/07/28 09:21:32;;;;;;;;;;;;;;;;;;5067867;28;19924;-67
2021/07/28 09:23:59;;;;;;;;;;;;;;;;;;5066283;28;20376;-68
2021/07/28 09:26:26;;;;;;;;;;;;;;;;;;5057952;28;25548;-67
2021/07/28 09:28:53;;;;;;;;;;;;;;;;;;5066686;28;20342;-68
2021/07/28 09:31:20;;;;;;;;;;;;;;;;;;5067889;28;19933;-67
2021/07/28 09:33:47;;;;;;;;;;;;;;;;;;5063747;28;19932;-69
2021/07/28 09:36:14;;;;;;;;;;;;;;;;;;5057998;28;19939;-69
2021/07/28 09:41:09;;;;;;;;;;;;;;;;;;5055633;28;20350;-66
2021/07/28 09:43:36;;;;;;;;;;;;;;;;;;5061136;28;19931;-65
2021/07/28 09:46:03;;;;;;;;;;;;;;;;;;5047756;28;19925;-67
2021/07/28 09:48:30;;;;;;;;;;;;;;;;;;5067360;28;19931;-65
2021/07/28 09:50:57;;;;;;;;;;;;;;;;;;5050908;28;20280;-67
2021/07/28 09:53:24;;;;;;;;;;;;;;;;;;5052109;28;19951;-66
2021/07/28 09:55:54;;;;;;;;;;;;;;;;;;5040383;28;19925;-66
2021/07/28 09:58:21;;;;;;;;;;;;;;;;;;5050398;28;20311;-65
2021/07/28 10:00:48;;;;;;;;;;;;;;;;;;5045434;28;19928;-65
2021/07/28 10:03:15;;;;;;;;;;;;;;;;;;5048139;28;19932;-66
2021/07/28 10:05:42;;;;;;;;;;;;;;;;;;5043324;28;19931;-65
2021/07/28 10:08:09;;;;;;;;;;;;;;;;;;5047092;28;19925;-66
2021/07/28 10:10:36;;;;;;;;;;;;;;;;;;5038247;28;19932;-66
2021/07/28 10:13:03;;;;;;;;;;;;;;;;;;5051166;28;20269;-67
2021/07/28 10:15:30;;;;;;;;;;;;;;;;;;5048251;28;19925;-65
2021/07/28 10:17:57;;;;;;;;;;;;;;;;;;5043613;28;19948;-67
2021/07/28 10:20:24;;;;;;;;;;;;;;;;;;5051334;28;19932;-65
2021/07/28 10:22:51;;;;;;;;;;;;;;;;;;5050398;28;19932;-64
2021/07/28 10:25:18;;;;;;;;;;;;;;;;;;5045376;28;19933;-65
2021/07/28 10:27:45;;;;;;;;;;;;;;;;;;5050364;28;19946;-65
2021/07/28 10:30:14;;;;;;;;;;;;;;;;;;5046812;28;19924;-66
2021/07/28 10:32:41;;;;;;;;;;;;;;;;;;5046531;28;19943;-65
2021/07/28 10:35:08;;;;;;;;;;;;;;;;;;5044915;28;20404;-68
2021/07/28 10:37:35;;;;;;;;;;;;;;;;;;5043805;28;19925;-67
2021/07/28 10:40:02;;;;;;;;;;;;;;;;;;5047506;28;19925;-64
2021/07/28 10:42:29;;;;;;;;;;;;;;;;;;5042128;28;19968;-66
2021/07/28 10:44:56;;;;;;;;;;;;;;;;;;5044880;28;19944;-66
2021/07/28 10:47:23;;;;;;;;;;;;;;;;;;5040220;28;19925;-66
2021/07/28 10:49:50;;;;;;;;;;;;;;;;;;5044897;28;19925;-65
2021/07/28 10:52:17;;;;;;;;;;;;;;;;;;5049570;28;19932;-67
2021/07/28 10:54:44;;;;;;;;;;;;;;;;;;5047073;28;19929;-67
2021/07/28 10:57:11;;;;;;;;;;;;;;;;;;5043767;28;20020;-65
2021/07/28 10:59:38;;;;;;;;;;;;;;;;;;5047880;28;20354;-66
2021/07/28 11:02:05;;;;;;;;;;;;;;;;;;5045592;28;19925;-66
2021/07/28 11:04:32;;;;;;;;;;;;;;;;;;5045245;28;19955;-66
2021/07/28 11:06:59;;;;;;;;;;;;;;;;;;5047500;28;20011;-66
2021/07/28 11:09:28;;;;;;;;;;;;;;;;;;5047063;28;19935;-66
2021/07/28 11:11:54;;;;;;;;;;;;;;;;;;5043806;28;20027;-68
2021/07/28 11:14:21;;;;;;;;;;;;;;;;;;5044850;28;19931;-66
2021/07/28 11:16:48;;;;;;;;;;;;;;;;;;5048645;28;20356;-66
2021/07/28 11:19:19;;;;;;;;;;;;;;;;;;5046659;28;19932;-66
2021/07/28 11:21:46;;;;;;;;;;;;;;;;;;5046400;28;19936;-65
2021/07/28 11:24:13;;;;;;;;;;;;;;;;;;5038068;28;19933;-66
2021/07/28 11:26:41;;;;;;;;;;;;;;;;;;5042702;28;19937;-66
2021/07/28 11:29:09;;;;;;;;;;;;;;;;;;5041461;28;19924;-65
2021/07/28 11:31:36;;;;;;;;;;;;;;;;;;5045481;28;19931;-65
2021/07/28 11:34:03;;;;;;;;;;;;;;;;;;5044851;28;19929;-66
2021/07/28 11:36:32;;;;;;;;;;;;;;;;;;5048367;28;20388;-66
2021/07/28 11:38:59;;;;;;;;;;;;;;;;;;5043181;28;19990;-65
2021/07/28 11:41:26;;;;;;;;;;;;;;;;;;5042993;28;19943;-66
2021/07/28 11:43:53;;;;;;;;;;;;;;;;;;5044624;28;19925;-64
2021/07/28 11:46:21;;;;;;;;;;;;;;;;;;5039012;28;19935;-65
2021/07/28 11:48:50;;;;;;;;;;;;;;;;;;5038899;28;19960;-66
2021/07/28 11:51:17;;;;;;;;;;;;;;;;;;5041671;28;19933;-66
2021/07/28 11:53:45;;;;;;;;;;;;;;;;;;5046602;28;20208;-66
2021/07/28 11:56:12;;;;;;;;;;;;;;;;;;5043277;28;19925;-67
2021/07/28 11:58:39;;;;;;;;;;;;;;;;;;5041807;28;19932;-65
2021/07/28 12:01:06;;;;;;;;;;;;;;;;;;5041340;28;19943;-64
2021/07/28 12:03:33;;;;;;;;;;;;;;;;;;5038751;28;20148;-65
2021/07/28 12:06:00;;;;;;;;;;;;;;;;;;5038626;28;20295;-65
2021/07/28 12:08:27;;;;;;;;;;;;;;;;;;5044711;28;19947;-66
2021/07/28 12:10:54;;;;;;;;;;;;;;;;;;5046986;28;19978;-65
2021/07/28 12:13:20;;;;;;;;;;;;;;;;;;5044066;28;19948;-64
2021/07/28 12:15:47;;;;;;;;;;;;;;;;;;5043267;28;19925;-65
2021/07/28 12:18:14;;;;;;;;;;;;;;;;;;5045789;28;20443;-65
2021/07/28 12:20:41;;;;;;;;;;;;;;;;;;5045942;28;19925;-66
2021/07/28 12:23:08;;;;;;;;;;;;;;;;;;5043844;28;19933;-66
2021/07/28 12:25:35;;;;;;;;;;;;;;;;;;5040942;28;19928;-66
2021/07/28 12:28:02;;;;;;;;;;;;;;;;;;5044373;28;20296;-66
2021/07/28 12:30:29;;;;;;;;;;;;;;;;;;5045452;28;20416;-65
2021/07/28 12:32:56;;;;;;;;;;;;;;;;;;5045445;28;20387;-67
2021/07/28 12:35:23;;;;;;;;;;;;;;;;;;5048092;28;19931;-65
2021/07/28 12:37:50;;;;;;;;;;;;;;;;;;5045688;28;19929;-65
2021/07/28 12:40:17;;;;;;;;;;;;;;;;;;5047137;28;19933;-66
2021/07/28 12:42:44;;;;;;;;;;;;;;;;;;5045467;28;19925;-66
2021/07/28 12:45:11;;;;;;;;;;;;;;;;;;5043731;28;19924;-66
2021/07/28 12:47:38;;;;;;;;;;;;;;;;;;5047897;28;20491;-66
2021/07/28 12:50:05;;;;;;;;;;;;;;;;;;5047183;28;20026;-66
2021/07/28 12:52:32;;;;;;;;;;;;;;;;;;5042339;28;20069;-66
2021/07/28 12:54:59;;;;;;;;;;;;;;;;;;5043512;28;19933;-66
2021/07/28 12:57:26;;;;;;;;;;;;;;;;;;5044041;28;19936;-65
2021/07/28 12:59:52;;;;;;;;;;;;;;;;;;5037441;28;19929;-64
2021/07/28 13:02:19;;;;;;;;;;;;;;;;;;5038740;28;19933;-64
2021/07/28 13:04:46;;;;;;;;;;;;;;;;;;5042872;28;19925;-68
2021/07/28 13:07:18;;;;;;;;;;;;;;;;;;5044379;28;19924;-65
2021/07/28 13:09:45;;;;;;;;;;;;;;;;;;5042100;28;20385;-64
2021/07/28 13:12:12;;;;;;;;;;;;;;;;;;5042143;28;19948;-64
2021/07/28 13:14:39;;;;;;;;;;;;;;;;;;5044759;28;19931;-64
2021/07/28 13:17:06;;;;;;;;;;;;;;;;;;5042735;28;19935;-66
2021/07/28 13:19:33;;;;;;;;;;;;;;;;;;5042805;28;20004;-64
2021/07/28 13:22:00;;;;;;;;;;;;;;;;;;5041550;28;19925;-66
2021/07/28 13:24:27;;;;;;;;;;;;;;;;;;5042841;28;19929;-64
2021/07/28 13:26:54;;;;;;;;;;;;;;;;;;5047480;28;20299;-64
2021/07/28 13:29:21;;;;;;;;;;;;;;;;;;5047125;28;19936;-64
2021/07/28 13:31:49;;;;;;;;;;;;;;;;;;5045941;28;19940;-63
2021/07/28 13:34:16;;;;;;;;;;;;;;;;;;5049620;28;19924;-64
2021/07/28 13:36:43;;;;;;;;;;;;;;;;;;5046415;28;19932;-65
2021/07/28 13:39:10;;;;;;;;;;;;;;;;;;5046982;28;19925;-65
2021/07/28 13:41:37;;;;;;;;;;;;;;;;;;5048875;28;19924;-65
2021/07/28 13:44:04;;;;;;;;;;;;;;;;;;5050417;28;19929;-65
2021/07/28 13:46:31;;;;;;;;;;;;;;;;;;5045735;28;19935;-66
2021/07/28 13:48:58;;;;;;;;;;;;;;;;;;5045966;28;20295;-64
2021/07/28 13:51:24;;;;;;;;;;;;;;;;;;5047452;28;21565;-64
2021/07/28 13:53:51;;;;;;;;;;;;;;;;;;5049314;28;19924;-64
2021/07/28 13:56:18;;;;;;;;;;;;;;;;;;5049722;28;19929;-65
2021/07/28 13:58:45;;;;;;;;;;;;;;;;;;5046833;28;20407;-65
2021/07/28 14:01:12;;;;;;;;;;;;;;;;;;5047704;28;19931;-64
2021/07/28 14:03:39;;;;;;;;;;;;;;;;;;5045807;28;20492;-65
2021/07/28 14:06:06;;;;;;;;;;;;;;;;;;5048995;28;19932;-64
2021/07/28 14:08:33;;;;;;;;;;;;;;;;;;5044853;28;19948;-65
2021/07/28 14:11:01;;;;;;;;;;;;;;;;;;5045431;28;19931;-64
2021/07/28 14:13:28;;;;;;;;;;;;;;;;;;5047486;28;19924;-64
2021/07/28 14:15:54;;;;;;;;;;;;;;;;;;5048392;28;19924;-64
2021/07/28 14:18:21;;;;;;;;;;;;;;;;;;5044857;28;20304;-63
2021/07/28 14:20:48;;;;;;;;;;;;;;;;;;5048414;28;19925;-64
2021/07/28 14:23:15;;;;;;;;;;;;;;;;;;5050941;28;19950;-65
2021/07/28 14:25:42;;;;;;;;;;;;;;;;;;5045189;28;19924;-63
2021/07/28 14:28:09;;;;;;;;;;;;;;;;;;5046007;28;19939;-67
2021/07/28 14:30:36;;;;;;;;;;;;;;;;;;5045364;28;19925;-64
2021/07/28 14:33:03;;;;;;;;;;;;;;;;;;5046056;28;19935;-65
2021/07/28 14:35:30;;;;;;;;;;;;;;;;;;5047368;28;20313;-64
2021/07/28 14:37:57;;;;;;;;;;;;;;;;;;5046525;28;19924;-64
2021/07/28 14:40:24;;;;;;;;;;;;;;;;;;5044491;28;19925;-65
2021/07/28 14:42:51;;;;;;;;;;;;;;;;;;5044428;28;20404;-65
2021/07/28 14:45:18;;;;;;;;;;;;;;;;;;5043443;28;20313;-65
2021/07/28 14:47:45;;;;;;;;;;;;;;;;;;5046370;28;19935;-67
2021/07/28 14:50:12;;;;;;;;;;;;;;;;;;5044986;28;19933;-65
2021/07/28 14:52:39;;;;;;;;;;;;;;;;;;5046272;28;20387;-65
2021/07/28 14:55:06;;;;;;;;;;;;;;;;;;5047818;28;19925;-64
2021/07/28 14:57:34;;;;;;;;;;;;;;;;;;5044962;28;20404;-65
2021/07/28 15:00:01;;;;;;;;;;;;;;;;;;5042374;28;19924;-65
2021/07/28 15:02:28;;;;;;;;;;;;;;;;;;5044745;28;19979;-65
2021/07/28 15:04:55;;;;;;;;;;;;;;;;;;5043011;28;19933;-65
2021/07/28 15:07:22;;;;;;;;;;;;;;;;;;5043750;28;19939;-65
2021/07/28 15:09:49;;;;;;;;;;;;;;;;;;5044506;28;19933;-65
2021/07/28 15:12:16;;;;;;;;;;;;;;;;;;5042531;28;19932;-65
2021/07/28 15:14:43;;;;;;;;;;;;;;;;;;5048557;28;19929;-65
2021/07/28 15:17:10;;;;;;;;;;;;;;;;;;5045020;28;20021;-65
2021/07/28 15:19:37;;;;;;;;;;;;;;;;;;5044918;28;19925;-62
2021/07/28 15:22:05;;;;;;;;;;;;;;;;;;5043727;28;19925;-64
2021/07/28 15:24:32;;;;;;;;;;;;;;;;;;5045420;28;19962;-64
2021/07/28 15:26:59;;;;;;;;;;;;;;;;;;5046252;28;19925;-65
2021/07/28 15:29:26;;;;;;;;;;;;;;;;;;5044261;28;19933;-65
2021/07/28 15:31:55;;;;;;;;;;;;;;;;;;5049103;28;20019;-65
2021/07/28 15:34:22;;;;;;;;;;;;;;;;;;5046728;28;19925;-64
2021/07/28 15:36:50;;;;;;;;;;;;;;;;;;5050447;28;19936;-64
2021/07/28 15:39:17;;;;;;;;;;;;;;;;;;5045668;22;20446;-65
2021/07/28 15:41:44;;;;;;;;;;;;;;;;;;4985127;28;20020;-65
2021/07/28 15:44:12;;;;;;;;;;;;;;;;;;4980347;28;20447;-63
2021/07/28 15:46:39;;;;;;;;;;;;;;;;;;4980848;28;19936;-64
2021/07/28 15:49:06;;;;;;;;;;;;;;;;;;4983150;28;19933;-65
2021/07/28 15:51:33;;;;;;;;;;;;;;;;;;4983375;28;19925;-64
2021/07/28 15:54:00;;;;;;;;;;;;;;;;;;4984303;28;19936;-64
2021/07/28 15:56:27;;;;;;;;;;;;;;;;;;4984523;28;19930;-64
2021/07/28 15:58:56;;;;;;;;;;;;;;;;;;4985321;28;19926;-65
2021/07/28 16:01:23;;;;;;;;;;;;;;;;;;4981467;28;19926;-64
2021/07/28 16:03:52;;;;;;;;;;;;;;;;;;4982750;28;19933;-65
2021/07/28 16:06:19;;;;;;;;;;;;;;;;;;4983202;28;19968;-64
2021/07/28 16:08:46;;;;;;;;;;;;;;;;;;4983428;28;20305;-63
2021/07/28 16:11:13;;;;;;;;;;;;;;;;;;4983808;28;19968;-65
2021/07/28 16:13:40;;;;;;;;;;;;;;;;;;4982612;28;19967;-67
2021/07/28 16:16:07;;;;;;;;;;;;;;;;;;4980907;28;19933;-64
2021/07/28 16:18:35;;;;;;;;;;;;;;;;;;4981421;28;19926;-65
2021/07/28 16:21:02;;;;;;;;;;;;;;;;;;4983738;28;20355;-63
2021/07/28 16:23:29;;;;;;;;;;;;;;;;;;4979151;28;19930;-67
2021/07/28 16:25:56;;;;;;;;;;;;;;;;;;4983238;28;19932;-64
2021/07/28 16:28:23;;;;;;;;;;;;;;;;;;4981453;28;20385;-65
2021/07/28 16:30:50;;;;;;;;;;;;;;;;;;4981086;28;19976;-66
2021/07/28 16:33:17;;;;;;;;;;;;;;;;;;4984854;28;19926;-66
2021/07/28 16:35:44;;;;;;;;;;;;;;;;;;4983087;28;20356;-64
2021/07/28 16:38:11;;;;;;;;;;;;;;;;;;4983318;28;20279;-64
2021/07/28 16:40:38;;;;;;;;;;;;;;;;;;4987943;28;19925;-65
2021/07/28 16:43:05;;;;;;;;;;;;;;;;;;4983868;28;19930;-64
2021/07/28 16:45:32;;;;;;;;;;;;;;;;;;4988697;28;19937;-64
2021/07/28 16:47:59;;;;;;;;;;;;;;;;;;4979977;28;20367;-65
2021/07/28 16:50:26;;;;;;;;;;;;;;;;;;4982851;28;20307;-67